createdAt,value
2022-12-18T00:05:27.270Z,84.50
2022-12-18T00:13:35.666Z,83.90
2022-12-18T00:21:41.388Z,84.40
2022-12-18T00:29:50.238Z,85.20
2022-12-18T00:37:55.785Z,84.20
2022-12-18T00:46:05.223Z,84.60
2022-12-18T00:54:10.909Z,83.80
2022-12-18T01:02:20.093Z,84.50
2022-12-18T01:10:26.044Z,84.70
2022-12-18T01:18:33.967Z,84.70
2022-12-18T01:26:39.281Z,84.30
2022-12-18T01:34:47.242Z,83.30
2022-12-18T01:42:55.332Z,84.80
2022-12-18T01:51:05.726Z,84.90
2022-12-18T01:59:14.909Z,83.80
2022-12-18T02:07:35.221Z,83.40
2022-12-18T02:15:46.315Z,83.60
2022-12-18T02:24:03.825Z,84.00
2022-12-18T02:32:17.269Z,84.10
2022-12-18T02:40:23.659Z,84.10
2022-12-18T02:48:33.665Z,83.80
2022-12-18T02:56:42.834Z,83.40
2022-12-18T03:04:55.293Z,84.30
2022-12-18T03:13:05.811Z,83.90
2022-12-18T03:21:17.768Z,83.60
2022-12-18T03:29:26.865Z,83.40
2022-12-18T03:37:37.980Z,83.00
2022-12-18T03:45:52.130Z,83.20
2022-12-18T03:54:03.167Z,82.70
2022-12-18T04:02:13.185Z,83.10
2022-12-18T04:10:22.005Z,83.60
2022-12-18T04:18:27.857Z,83.00
2022-12-18T04:26:37.006Z,82.60
2022-12-18T04:34:52.020Z,82.90
2022-12-18T04:43:00.123Z,83.00
2022-12-18T04:51:05.525Z,82.70
2022-12-18T04:59:13.469Z,82.60
2022-12-18T05:07:18.758Z,81.80
2022-12-18T05:15:26.695Z,81.80
2022-12-18T05:23:32.085Z,82.90
2022-12-18T05:31:43.003Z,81.70
2022-12-18T05:39:48.880Z,81.80
2022-12-18T05:47:57.527Z,81.60
2022-12-18T05:56:05.411Z,81.80
2022-12-18T06:04:13.533Z,81.50
2022-12-18T06:12:18.959Z,80.90
2022-12-18T06:20:30.523Z,81.20
2022-12-18T06:28:38.694Z,80.50
2022-12-18T06:36:46.744Z,80.00
2022-12-18T06:44:52.009Z,79.50
2022-12-18T06:52:59.930Z,78.80
2022-12-18T07:01:06.415Z,78.60
2022-12-18T07:09:14.393Z,78.20
2022-12-18T07:17:20.576Z,77.70
2022-12-18T07:25:29.700Z,77.50
2022-12-18T07:33:35.401Z,77.50
2022-12-18T07:41:47.606Z,76.10
2022-12-18T07:49:54.992Z,75.70
2022-12-18T07:58:05.179Z,76.10
2022-12-18T08:06:12.591Z,75.80
2022-12-18T08:14:20.715Z,75.80
2022-12-18T08:22:26.795Z,76.20
2022-12-18T08:30:34.778Z,76.10
2022-12-18T08:38:41.157Z,76.10
2022-12-18T08:46:50.067Z,76.10
2022-12-18T08:54:55.393Z,75.60
2022-12-18T09:03:03.493Z,75.30
2022-12-18T09:11:15.698Z,75.30
2022-12-18T09:19:25.674Z,75.60
2022-12-18T09:27:31.125Z,75.20
2022-12-18T09:35:40.440Z,73.60
2022-12-18T09:43:50.894Z,72.50
2022-12-18T09:52:05.136Z,72.30
2022-12-18T10:00:20.100Z,74.10
2022-12-18T10:08:38.642Z,73.80
2022-12-18T10:16:51.784Z,74.70
2022-12-18T10:25:05.923Z,75.20
2022-12-18T10:33:16.274Z,74.90
2022-12-18T10:41:32.056Z,74.90
2022-12-18T10:49:39.299Z,75.20
2022-12-18T10:57:47.440Z,76.10
2022-12-18T11:06:05.846Z,77.30
2022-12-18T11:14:20.095Z,78.30
2022-12-18T11:22:29.223Z,78.70
2022-12-18T11:30:39.273Z,79.70
2022-12-18T11:38:47.617Z,79.20
2022-12-18T11:47:00.903Z,79.60
2022-12-18T11:55:16.339Z,80.00
2022-12-18T12:03:53.440Z,80.20
2022-12-18T12:12:14.695Z,79.30
2022-12-18T12:20:29.782Z,79.60
2022-12-18T12:29:01.398Z,77.60
2022-12-18T12:37:21.777Z,77.80
2022-12-18T12:45:38.678Z,78.50
2022-12-18T12:53:46.971Z,78.20
2022-12-18T13:01:58.565Z,77.50
2022-12-18T13:10:36.281Z,77.40
2022-12-18T13:18:42.094Z,76.70
2022-12-18T13:26:50.840Z,76.30
2022-12-18T13:35:41.379Z,75.70
2022-12-18T13:43:51.349Z,75.00
2022-12-18T13:51:59.462Z,74.20
2022-12-18T14:00:29.835Z,74.30
2022-12-18T14:08:41.651Z,74.10
2022-12-18T14:16:51.049Z,73.20
2022-12-18T14:25:17.555Z,73.50
2022-12-18T14:33:27.087Z,74.00
2022-12-18T14:41:34.226Z,74.10
2022-12-18T14:49:46.151Z,75.00
2022-12-18T14:57:55.501Z,75.00
2022-12-18T15:06:20.458Z,75.00
2022-12-18T15:14:28.501Z,75.80
2022-12-18T15:22:40.547Z,75.80
2022-12-18T15:31:06.586Z,75.80
2022-12-18T15:39:17.359Z,76.00
2022-12-18T15:47:25.524Z,75.70
2022-12-18T15:55:47.666Z,76.20
2022-12-18T16:04:00.076Z,75.90
2022-12-18T16:12:08.740Z,76.00
2022-12-18T16:20:17.029Z,75.40
2022-12-18T16:28:25.026Z,76.00
2022-12-18T16:36:30.358Z,76.20
2022-12-18T16:44:39.572Z,75.90
2022-12-18T16:52:45.282Z,75.20
2022-12-18T17:00:53.528Z,75.60
2022-12-18T17:08:59.987Z,75.10
2022-12-18T17:17:20.784Z,75.00
2022-12-18T17:25:27.601Z,75.00
2022-12-18T17:33:35.611Z,75.10
2022-12-18T17:41:40.949Z,75.10
2022-12-18T17:49:48.960Z,74.90
2022-12-18T17:57:54.470Z,75.10
2022-12-18T18:06:03.984Z,75.30
2022-12-18T18:14:14.464Z,74.60
2022-12-18T18:22:23.040Z,75.00
2022-12-18T18:30:30.879Z,74.80
2022-12-18T18:38:38.951Z,74.70
2022-12-18T18:46:44.299Z,74.30
2022-12-18T18:55:12.219Z,74.90
2022-12-18T19:03:21.141Z,75.80
2022-12-18T19:11:54.947Z,75.60
2022-12-18T19:20:00.292Z,75.10
2022-12-18T19:28:21.669Z,75.10
2022-12-18T19:36:30.358Z,75.10
2022-12-18T19:44:40.703Z,74.80
2022-12-18T19:52:46.928Z,76.00
2022-12-18T20:00:56.138Z,76.70
2022-12-18T20:09:03.814Z,77.70
2022-12-18T20:17:12.463Z,77.40
2022-12-18T20:25:26.242Z,77.40
2022-12-18T20:33:46.327Z,77.50
2022-12-18T20:41:57.320Z,78.30
2022-12-18T20:50:09.398Z,78.20
2022-12-18T20:58:14.786Z,78.00
2022-12-18T21:06:30.795Z,78.40
2022-12-18T21:14:36.288Z,78.70
2022-12-18T21:22:44.582Z,78.40
2022-12-18T21:30:50.622Z,79.00
2022-12-18T21:38:59.541Z,79.10
2022-12-18T21:47:21.370Z,79.70
2022-12-18T21:55:30.667Z,80.70
2022-12-18T22:03:36.227Z,80.80
2022-12-18T22:11:45.139Z,80.90
2022-12-18T22:19:50.476Z,80.70
2022-12-18T22:28:10.813Z,80.20
2022-12-18T22:36:16.132Z,79.80
2022-12-18T22:44:26.277Z,79.70
2022-12-18T22:52:31.620Z,79.70
2022-12-18T23:00:39.593Z,79.90
2022-12-18T23:08:44.905Z,80.20
2022-12-18T23:16:53.170Z,80.10
2022-12-18T23:24:58.759Z,80.70
2022-12-18T23:33:06.866Z,80.90
2022-12-18T23:41:13.752Z,81.30
2022-12-18T23:49:21.686Z,82.50
2022-12-18T23:57:28.640Z,82.60
